createdAt,value
2018-07-11T00:05:03.091Z,100115.00
2018-07-11T00:10:06.126Z,100105.00
2018-07-11T00:15:09.284Z,100104.00
2018-07-11T00:20:12.364Z,100106.00
2018-07-11T00:25:15.728Z,100110.00
2018-07-11T00:30:18.849Z,100112.00
2018-07-11T00:35:21.956Z,100109.00
2018-07-11T00:40:25.265Z,100108.00
2018-07-11T00:45:28.743Z,100113.00
2018-07-11T00:50:31.849Z,100119.00
2018-07-11T00:55:36.293Z,100120.00
2018-07-11T01:00:39.354Z,100110.00
2018-07-11T01:05:42.673Z,100117.00
2018-07-11T01:10:45.812Z,100113.00
2018-07-11T01:15:49.383Z,100111.00
2018-07-11T01:20:52.821Z,100113.00
2018-07-11T01:25:56.140Z,100113.00
2018-07-11T01:30:59.194Z,100120.00
2018-07-11T01:36:02.471Z,100113.00
2018-07-11T01:41:05.701Z,100111.00
2018-07-11T01:46:08.804Z,100111.00
2018-07-11T01:51:11.891Z,100111.00
2018-07-11T01:56:14.994Z,100117.00
2018-07-11T02:01:18.252Z,100112.00
2018-07-11T02:06:21.404Z,100107.00
2018-07-11T02:11:24.556Z,100103.00
2018-07-11T02:16:27.848Z,100104.00
2018-07-11T02:21:31.005Z,100106.00
2018-07-11T02:26:34.364Z,100116.00
2018-07-11T02:31:37.432Z,100108.00
2018-07-11T02:36:40.565Z,100108.00
2018-07-11T02:41:43.609Z,100113.00
2018-07-11T02:46:52.492Z,100110.00
2018-07-11T02:51:55.758Z,100109.00
2018-07-11T02:56:59.051Z,100107.00
2018-07-11T03:02:02.129Z,100117.00
2018-07-11T03:07:06.047Z,100123.00
2018-07-11T03:12:09.576Z,100120.00
2018-07-11T03:17:12.625Z,100121.00
2018-07-11T03:22:16.071Z,100126.00
2018-07-11T03:27:19.418Z,100134.00
2018-07-11T03:32:22.630Z,100140.00
2018-07-11T03:37:25.678Z,100139.00
2018-07-11T03:42:28.855Z,100140.00
2018-07-11T03:47:31.924Z,100141.00
2018-07-11T03:52:35.151Z,100137.00
2018-07-11T03:57:38.466Z,100131.00
2018-07-11T04:02:41.764Z,100135.00
2018-07-11T04:07:44.831Z,100130.00
2018-07-11T04:12:54.808Z,100130.00
2018-07-11T04:17:57.988Z,100134.00
2018-07-11T04:23:01.032Z,100142.00
2018-07-11T04:28:04.304Z,100147.00
2018-07-11T04:33:07.397Z,100153.00
2018-07-11T04:38:10.683Z,100166.00
2018-07-11T04:43:14.109Z,100155.00
2018-07-11T04:48:19.930Z,100147.00
2018-07-11T04:53:26.125Z,100138.00
2018-07-11T04:58:30.065Z,100142.00
2018-07-11T05:03:33.071Z,100148.00
2018-07-11T05:08:36.040Z,100162.00
2018-07-11T05:13:39.288Z,100168.00
2018-07-11T05:18:42.251Z,100171.00
2018-07-11T05:23:45.203Z,100173.00
2018-07-11T05:28:48.607Z,100173.00
2018-07-11T05:33:51.817Z,100188.00
2018-07-11T05:38:55.038Z,100182.00
2018-07-11T05:43:58.639Z,100179.00
2018-07-11T05:49:01.648Z,100186.00
2018-07-11T05:54:04.641Z,100187.00
2018-07-11T05:59:07.804Z,100177.00
2018-07-11T06:04:10.831Z,100189.00
2018-07-11T06:09:14.097Z,100184.00
2018-07-11T06:14:17.220Z,100182.00
2018-07-11T06:19:20.391Z,100188.00
2018-07-11T06:24:23.404Z,100205.00
2018-07-11T06:29:26.449Z,100215.00
2018-07-11T06:34:29.436Z,100206.00
2018-07-11T06:39:32.426Z,100202.00
2018-07-11T06:44:35.640Z,100222.00
2018-07-11T06:49:38.681Z,100222.00
2018-07-11T06:54:41.930Z,100241.00
2018-07-11T06:59:45.141Z,100244.00
2018-07-11T07:04:48.125Z,100245.00
2018-07-11T07:09:51.205Z,100239.00
2018-07-11T07:14:54.216Z,100252.00
2018-07-11T07:19:57.199Z,100245.00
2018-07-11T07:25:00.152Z,100232.00
2018-07-11T07:30:03.373Z,100228.00
2018-07-11T07:35:06.407Z,100228.00
2018-07-11T07:40:09.476Z,100229.00
2018-07-11T07:45:12.519Z,100221.00
2018-07-11T07:50:16.337Z,100225.00
2018-07-11T07:55:19.411Z,100231.00
2018-07-11T08:00:22.535Z,100232.00
2018-07-11T08:05:25.579Z,100233.00
2018-07-11T08:10:28.644Z,100243.00
2018-07-11T08:15:31.958Z,100245.00
2018-07-11T08:20:35.251Z,100238.00
2018-07-11T08:25:56.812Z,100234.00
2018-07-11T08:31:45.004Z,100236.00
2018-07-11T08:37:06.304Z,100243.00
2018-07-11T08:44:30.428Z,100243.00
2018-07-11T08:51:59.394Z,100234.00
2018-07-11T08:57:48.324Z,100244.00
2018-07-11T09:05:46.745Z,100246.00
2018-07-11T09:15:10.125Z,100252.00
2018-07-11T09:22:36.651Z,100252.00
2018-07-11T09:27:39.668Z,100248.00
2018-07-11T09:32:42.965Z,100242.00
2018-07-11T09:37:46.000Z,100236.00
2018-07-11T09:42:49.319Z,100250.00
2018-07-11T09:47:52.552Z,100243.00
2018-07-11T09:52:55.580Z,100245.00
2018-07-11T09:57:58.844Z,100256.00
2018-07-11T10:03:02.435Z,100243.00
2018-07-11T10:08:08.319Z,100258.00
2018-07-11T10:13:11.707Z,100249.00
2018-07-11T10:18:14.688Z,100251.00
2018-07-11T10:23:17.743Z,100239.00
2018-07-11T10:28:21.177Z,100244.00
2018-07-11T10:33:24.204Z,100245.00
2018-07-11T10:38:27.387Z,100242.00
2018-07-11T10:43:30.483Z,100223.00
2018-07-11T10:48:34.021Z,100217.00
2018-07-11T10:53:37.093Z,100227.00
2018-07-11T10:58:40.081Z,100223.00
2018-07-11T11:03:43.208Z,100221.00
2018-07-11T11:08:47.263Z,100224.00
2018-07-11T11:13:50.336Z,100222.00
2018-07-11T11:18:53.377Z,100219.00
2018-07-11T11:23:56.416Z,100227.00
2018-07-11T11:28:59.455Z,100222.00
2018-07-11T11:34:02.691Z,100213.00
2018-07-11T11:39:05.750Z,100224.00
2018-07-11T11:44:08.820Z,100220.00
2018-07-11T11:49:12.021Z,100227.00
2018-07-11T11:54:15.544Z,100219.00
2018-07-11T11:59:18.638Z,100216.00
2018-07-11T12:04:21.827Z,100228.00
2018-07-11T12:09:24.820Z,100221.00
2018-07-11T12:14:27.991Z,100209.00
2018-07-11T12:19:31.279Z,100211.00
2018-07-11T12:24:34.640Z,100213.00
2018-07-11T12:29:37.918Z,100222.00
2018-07-11T12:34:41.077Z,100222.00
2018-07-11T12:39:44.888Z,100230.00
2018-07-11T12:44:47.996Z,100220.00
2018-07-11T12:49:51.182Z,100226.00
2018-07-11T12:54:54.279Z,100218.00
2018-07-11T12:59:57.748Z,100223.00
2018-07-11T13:05:01.473Z,100224.00
2018-07-11T13:10:04.486Z,100216.00
2018-07-11T13:15:07.548Z,100219.00
2018-07-11T13:20:10.822Z,100220.00
2018-07-11T13:25:13.965Z,100214.00
2018-07-11T13:30:17.196Z,100216.00
2018-07-11T13:35:20.283Z,100218.00
2018-07-11T13:40:23.492Z,100228.00
2018-07-11T13:45:26.520Z,100225.00
2018-07-11T13:50:30.969Z,100226.00
2018-07-11T13:55:34.272Z,100209.00
2018-07-11T14:00:37.540Z,100207.00
2018-07-11T14:05:40.712Z,100207.00
2018-07-11T14:10:43.955Z,100212.00
2018-07-11T14:15:46.947Z,100223.00
2018-07-11T14:20:49.938Z,100213.00
2018-07-11T14:25:53.325Z,100229.00
2018-07-11T14:30:56.496Z,100234.00
2018-07-11T14:36:00.411Z,100235.00
2018-07-11T14:41:03.468Z,100237.00
2018-07-11T14:46:06.592Z,100226.00
2018-07-11T14:51:10.171Z,100242.00
2018-07-11T14:56:13.386Z,100241.00
2018-07-11T15:01:16.401Z,100239.00
2018-07-11T15:06:19.880Z,100236.00
2018-07-11T15:11:23.380Z,100235.00
2018-07-11T15:16:26.564Z,100243.00
2018-07-11T15:21:29.504Z,100224.00
2018-07-11T15:26:32.465Z,100223.00
2018-07-11T15:31:35.620Z,100221.00
2018-07-11T15:36:38.618Z,100216.00
2018-07-11T15:41:41.939Z,100215.00
2018-07-11T15:46:44.883Z,100215.00
2018-07-11T15:51:48.860Z,100223.00
2018-07-11T15:56:52.283Z,100215.00
2018-07-11T16:01:56.632Z,100212.00
2018-07-11T16:07:04.214Z,100215.00
2018-07-11T16:12:07.437Z,100223.00
2018-07-11T16:17:10.448Z,100223.00
2018-07-11T16:22:13.666Z,100222.00
2018-07-11T16:27:17.752Z,100224.00
2018-07-11T16:32:20.992Z,100220.00
2018-07-11T16:37:24.192Z,100219.00
2018-07-11T16:42:27.268Z,100220.00
2018-07-11T16:47:30.652Z,100225.00
2018-07-11T16:52:34.020Z,100228.00
2018-07-11T16:57:46.820Z,100236.00
2018-07-11T17:02:58.964Z,100238.00
2018-07-11T17:08:06.199Z,100241.00
2018-07-11T17:13:16.480Z,100236.00
2018-07-11T17:18:42.854Z,100228.00
2018-07-11T17:23:52.192Z,100233.00
2018-07-11T17:28:58.112Z,100232.00
2018-07-11T17:34:01.293Z,100226.00
2018-07-11T17:39:05.021Z,100232.00
2018-07-11T17:44:08.400Z,100227.00
2018-07-11T17:49:18.723Z,100228.00
2018-07-11T17:54:26.829Z,100230.00
2018-07-11T17:59:41.419Z,100218.00
2018-07-11T18:06:00.217Z,100230.00
2018-07-11T18:11:03.388Z,100241.00
2018-07-11T18:18:19.110Z,100231.00
2018-07-11T18:23:39.079Z,100240.00
2018-07-11T18:32:03.666Z,100243.00
2018-07-11T18:37:24.252Z,100270.00
2018-07-11T18:42:52.626Z,100248.00
2018-07-11T18:50:16.285Z,100265.00
2018-07-11T18:55:40.952Z,100266.00
2018-07-11T19:01:04.633Z,100253.00
2018-07-11T19:06:35.076Z,100253.00
2018-07-11T19:12:11.544Z,100261.00
2018-07-11T19:17:26.899Z,100256.00
2018-07-11T19:23:47.883Z,100255.00
2018-07-11T19:29:01.477Z,100262.00
2018-07-11T19:34:31.165Z,100260.00
2018-07-11T19:41:59.785Z,100265.00
2018-07-11T19:48:25.895Z,100262.00
2018-07-11T19:54:02.441Z,100258.00
2018-07-11T19:59:05.740Z,100255.00
2018-07-11T20:04:09.859Z,100253.00
2018-07-11T20:09:13.028Z,100255.00
2018-07-11T20:14:16.248Z,100258.00
2018-07-11T20:19:19.468Z,100256.00
2018-07-11T20:24:22.811Z,100271.00
2018-07-11T20:29:25.956Z,100266.00
2018-07-11T20:34:29.233Z,100260.00
2018-07-11T20:39:32.395Z,100267.00
2018-07-11T20:44:35.960Z,100276.00
2018-07-11T20:49:39.085Z,100275.00
2018-07-11T20:54:42.136Z,100278.00
2018-07-11T21:00:02.688Z,100282.00
2018-07-11T21:06:03.349Z,100286.00
2018-07-11T21:13:53.205Z,100284.00
2018-07-11T21:19:04.607Z,100283.00
2018-07-11T21:24:08.573Z,100278.00
2018-07-11T21:29:11.708Z,100270.00
2018-07-11T21:34:14.806Z,100280.00
2018-07-11T21:39:17.960Z,100283.00
2018-07-11T21:44:21.038Z,100279.00
2018-07-11T21:49:24.172Z,100279.00
2018-07-11T21:54:27.335Z,100277.00
2018-07-11T21:59:30.545Z,100271.00
2018-07-11T22:04:33.937Z,100267.00
2018-07-11T22:09:36.952Z,100273.00
2018-07-11T22:14:40.006Z,100266.00
2018-07-11T22:19:41.480Z,100265.00
2018-07-11T22:24:43.083Z,100264.00
2018-07-11T22:29:44.513Z,100269.00
2018-07-11T22:34:46.007Z,100267.00
2018-07-11T22:39:47.701Z,100260.00
2018-07-11T22:44:49.116Z,100256.00
2018-07-11T22:49:56.372Z,100258.00
2018-07-11T22:54:57.824Z,100261.00
2018-07-11T22:59:59.283Z,100265.00
2018-07-11T23:05:00.978Z,100264.00
2018-07-11T23:10:02.640Z,100268.00
2018-07-11T23:15:04.313Z,100260.00
2018-07-11T23:20:05.894Z,100264.00
2018-07-11T23:25:07.320Z,100263.00
2018-07-11T23:30:08.748Z,100255.00
2018-07-11T23:35:10.180Z,100250.00
2018-07-11T23:40:11.602Z,100271.00
2018-07-11T23:45:13.239Z,100258.00
2018-07-11T23:50:14.892Z,100262.00
2018-07-11T23:55:16.574Z,100260.00
